sensor_id;sensor_type;location;lat;lon;timestamp;pressure;altitude;pressure_sealevel;temperature;humidity
63954;BME280;50128;52.094;5.232;2023-02-02T00:00:21;101955.0;;;8.41;100.0
63954;BME280;50128;52.094;5.232;2023-02-02T00:02:00;101961.0;;;8.38;100.0
63954;BME280;50128;52.094;5.232;2023-02-02T00:05:13;101967.0;;;8.34;100.0
63954;BME280;50128;52.094;5.232;2023-02-02T00:06:50;101961.0;;;8.48;100.0
63954;BME280;50128;52.094;5.232;2023-02-02T00:08:27;101967.0;;;8.39;100.0
63954;BME280;50128;52.094;5.232;2023-02-02T00:11:41;101974.0;;;8.4;100.0
63954;BME280;50128;52.094;5.232;2023-02-02T00:13:19;101971.0;;;8.44;100.0
63954;BME280;50128;52.094;5.232;2023-02-02T00:14:56;101977.0;;;8.34;100.0
63954;BME280;50128;52.094;5.232;2023-02-02T00:16:36;101975.0;;;8.35;100.0
63954;BME280;50128;52.094;5.232;2023-02-02T00:19:49;101974.0;;;8.23;100.0
63954;BME280;50128;52.094;5.232;2023-02-02T00:21:25;101976.0;;;8.25;100.0
63954;BME280;50128;52.094;5.232;2023-02-02T00:23:03;101982.0;;;8.25;100.0
63954;BME280;50128;52.094;5.232;2023-02-02T00:26:16;101981.0;;;8.19;100.0
63954;BME280;50128;52.094;5.232;2023-02-02T00:27:53;101985.0;;;8.35;100.0
63954;BME280;50128;52.094;5.232;2023-02-02T00:29:30;101980.0;;;8.32;100.0
63954;BME280;50128;52.094;5.232;2023-02-02T00:31:07;101975.0;;;8.24;100.0
63954;BME280;50128;52.094;5.232;2023-02-02T00:34:23;101977.0;;;8.18;100.0
63954;BME280;50128;52.094;5.232;2023-02-02T00:36:01;101963.0;;;8.11;100.0
63954;BME280;50128;52.094;5.232;2023-02-02T00:37:38;101966.0;;;8.06;100.0
63954;BME280;50128;52.094;5.232;2023-02-02T00:40:53;101974.0;;;8.07;100.0
63954;BME280;50128;52.094;5.232;2023-02-02T00:42:29;101973.0;;;8.06;100.0
63954;BME280;50128;52.094;5.232;2023-02-02T00:45:24;101978.0;;;8.07;100.0
63954;BME280;50128;52.094;5.232;2023-02-02T00:47:00;101975.0;;;8.19;100.0
63954;BME280;50128;52.094;5.232;2023-02-02T00:48:37;101977.0;;;8.03;100.0
63954;BME280;50128;52.094;5.232;2023-02-02T00:50:17;101980.0;;;8.02;100.0
63954;BME280;50128;52.094;5.232;2023-02-02T00:53:31;101980.0;;;8.09;100.0
63954;BME280;50128;52.094;5.232;2023-02-02T00:55:09;101981.0;;;8.11;100.0
63954;BME280;50128;52.094;5.232;2023-02-02T00:56:45;101987.0;;;8.13;100.0
63954;BME280;50128;52.094;5.232;2023-02-02T00:58:22;101994.0;;;8.06;100.0
63954;BME280;50128;52.094;5.232;2023-02-02T01:01:35;101996.0;;;7.96;100.0
63954;BME280;50128;52.094;5.232;2023-02-02T01:04:48;101996.0;;;8.05;100.0
63954;BME280;50128;52.094;5.232;2023-02-02T01:08:01;101994.0;;;7.96;100.0
63954;BME280;50128;52.094;5.232;2023-02-02T01:09:37;101992.0;;;7.87;100.0
63954;BME280;50128;52.094;5.232;2023-02-02T01:11:13;101988.0;;;7.8;100.0
63954;BME280;50128;52.094;5.232;2023-02-02T01:14:27;101992.0;;;7.85;100.0
63954;BME280;50128;52.094;5.232;2023-02-02T01:16:04;101993.0;;;7.84;100.0
63954;BME280;50128;52.094;5.232;2023-02-02T01:17:41;102000.0;;;7.75;100.0
63954;BME280;50128;52.094;5.232;2023-02-02T01:19:18;101994.0;;;7.72;100.0
63954;BME280;50128;52.094;5.232;2023-02-02T01:22:34;101986.0;;;7.75;100.0
63954;BME280;50128;52.094;5.232;2023-02-02T01:24:10;102000.0;;;7.68;100.0
63954;BME280;50128;52.094;5.232;2023-02-02T01:25:52;101999.0;;;7.62;100.0
63954;BME280;50128;52.094;5.232;2023-02-02T01:29:04;102000.0;;;7.62;100.0
63954;BME280;50128;52.094;5.232;2023-02-02T01:30:41;101995.0;;;7.6;100.0
63954;BME280;50128;52.094;5.232;2023-02-02T01:32:17;101998.0;;;7.78;100.0
63954;BME280;50128;52.094;5.232;2023-02-02T01:33:53;102001.0;;;7.74;100.0
63954;BME280;50128;52.094;5.232;2023-02-02T01:37:05;101994.0;;;7.77;100.0
63954;BME280;50128;52.094;5.232;2023-02-02T01:38:41;101994.0;;;7.73;100.0
63954;BME280;50128;52.094;5.232;2023-02-02T01:40:18;101990.0;;;7.66;100.0
63954;BME280;50128;52.094;5.232;2023-02-02T01:43:51;101984.0;;;7.6;100.0
63954;BME280;50128;52.094;5.232;2023-02-02T01:45:28;101992.0;;;7.63;100.0
63954;BME280;50128;52.094;5.232;2023-02-02T01:47:05;101987.0;;;7.68;100.0
63954;BME280;50128;52.094;5.232;2023-02-02T01:48:47;101987.0;;;7.66;100.0
63954;BME280;50128;52.094;5.232;2023-02-02T01:52:09;101988.0;;;7.74;100.0
63954;BME280;50128;52.094;5.232;2023-02-02T01:53:50;101997.0;;;7.67;100.0
63954;BME280;50128;52.094;5.232;2023-02-02T01:55:30;101992.0;;;7.6;100.0
63954;BME280;50128;52.094;5.232;2023-02-02T01:57:11;102001.0;;;7.61;100.0
63954;BME280;50128;52.094;5.232;2023-02-02T02:00:27;102000.0;;;7.74;100.0
63954;BME280;50128;52.094;5.232;2023-02-02T02:02:04;102005.0;;;7.65;100.0
63954;BME280;50128;52.094;5.232;2023-02-02T02:03:41;101996.0;;;7.46;100.0
63954;BME280;50128;52.094;5.232;2023-02-02T02:05:24;101998.0;;;7.54;100.0
63954;BME280;50128;52.094;5.232;2023-02-02T02:08:45;101996.0;;;7.69;100.0
63954;BME280;50128;52.094;5.232;2023-02-02T02:10:36;101992.0;;;7.62;100.0
63954;BME280;50128;52.094;5.232;2023-02-02T02:12:14;102000.0;;;7.59;100.0
63954;BME280;50128;52.094;5.232;2023-02-02T02:18:08;101992.0;;;7.77;100.0
63954;BME280;50128;52.094;5.232;2023-02-02T02:28:33;101987.0;;;7.97;100.0
63954;BME280;50128;52.094;5.232;2023-02-02T02:32:03;101990.0;;;8.0;100.0
63954;BME280;50128;52.094;5.232;2023-02-02T02:34:36;101987.0;;;7.95;100.0
63954;BME280;50128;52.094;5.232;2023-02-02T02:36:24;101987.0;;;8.02;100.0
63954;BME280;50128;52.094;5.232;2023-02-02T02:38:10;101983.0;;;8.08;100.0
63954;BME280;50128;52.094;5.232;2023-02-02T02:39:55;101984.0;;;8.05;100.0
63954;BME280;50128;52.094;5.232;2023-02-02T02:41:38;101980.0;;;8.06;100.0
63954;BME280;50128;52.094;5.232;2023-02-02T02:43:21;101978.0;;;8.03;100.0
63954;BME280;50128;52.094;5.232;2023-02-02T02:45:03;101973.0;;;8.07;100.0
63954;BME280;50128;52.094;5.232;2023-02-02T02:48:19;101968.0;;;8.02;100.0
63954;BME280;50128;52.094;5.232;2023-02-02T02:49:55;101964.0;;;7.91;100.0
63954;BME280;50128;52.094;5.232;2023-02-02T02:51:49;101952.0;;;8.0;100.0
63954;BME280;50128;52.094;5.232;2023-02-02T02:53:25;101948.0;;;8.0;100.0
63954;BME280;50128;52.094;5.232;2023-02-02T02:56:48;101950.0;;;8.0;100.0
63954;BME280;50128;52.094;5.232;2023-02-02T02:59:36;101953.0;;;8.03;100.0
63954;BME280;50128;52.094;5.232;2023-02-02T03:01:28;101946.0;;;7.97;100.0
63954;BME280;50128;52.094;5.232;2023-02-02T03:03:18;101955.0;;;8.05;100.0
63954;BME280;50128;52.094;5.232;2023-02-02T03:05:06;101947.0;;;7.99;100.0
63954;BME280;50128;52.094;5.232;2023-02-02T03:06:52;101948.0;;;7.97;100.0
63954;BME280;50128;52.094;5.232;2023-02-02T03:08:32;101956.0;;;7.96;100.0
63954;BME280;50128;52.094;5.232;2023-02-02T03:10:14;101955.0;;;8.01;100.0
63954;BME280;50128;52.094;5.232;2023-02-02T03:13:31;101956.0;;;8.01;100.0
63954;BME280;50128;52.094;5.232;2023-02-02T03:15:08;101963.0;;;8.09;100.0
63954;BME280;50128;52.094;5.232;2023-02-02T03:16:45;101970.0;;;8.15;100.0
63954;BME280;50128;52.094;5.232;2023-02-02T03:20:03;101976.0;;;8.15;100.0
63954;BME280;50128;52.094;5.232;2023-02-02T03:21:39;101976.0;;;8.14;100.0
63954;BME280;50128;52.094;5.232;2023-02-02T03:23:15;101987.0;;;8.27;100.0
63954;BME280;50128;52.094;5.232;2023-02-02T03:24:52;101980.0;;;8.2;100.0
63954;BME280;50128;52.094;5.232;2023-02-02T03:28:05;101990.0;;;8.25;100.0
63954;BME280;50128;52.094;5.232;2023-02-02T03:29:42;101985.0;;;8.19;100.0
63954;BME280;50128;52.094;5.232;2023-02-02T03:31:18;101985.0;;;8.23;100.0
63954;BME280;50128;52.094;5.232;2023-02-02T03:34:31;101987.0;;;8.25;100.0
63954;BME280;50128;52.094;5.232;2023-02-02T03:36:08;101987.0;;;8.24;100.0
63954;BME280;50128;52.094;5.232;2023-02-02T03:37:45;101992.0;;;8.4;100.0
63954;BME280;50128;52.094;5.232;2023-02-02T03:40:57;101993.0;;;8.39;100.0
63954;BME280;50128;52.094;5.232;2023-02-02T03:42:34;101994.0;;;8.23;100.0
63954;BME280;50128;52.094;5.232;2023-02-02T03:44:10;101991.0;;;8.31;100.0
63954;BME280;50128;52.094;5.232;2023-02-02T03:45:46;101988.0;;;8.31;100.0
63954;BME280;50128;52.094;5.232;2023-02-02T03:48:58;101986.0;;;8.31;100.0
63954;BME280;50128;52.094;5.232;2023-02-02T03:50:36;101988.0;;;8.2;100.0
63954;BME280;50128;52.094;5.232;2023-02-02T03:52:12;101988.0;;;8.23;100.0
63954;BME280;50128;52.094;5.232;2023-02-02T03:55:25;101999.0;;;8.3;100.0
63954;BME280;50128;52.094;5.232;2023-02-02T03:57:01;101991.0;;;8.28;100.0
63954;BME280;50128;52.094;5.232;2023-02-02T03:58:37;101996.0;;;8.31;100.0
63954;BME280;50128;52.094;5.232;2023-02-02T04:01:50;101997.0;;;8.34;100.0
63954;BME280;50128;52.094;5.232;2023-02-02T04:03:26;102002.0;;;8.36;100.0
63954;BME280;50128;52.094;5.232;2023-02-02T04:05:03;101990.0;;;8.36;100.0
63954;BME280;50128;52.094;5.232;2023-02-02T04:06:40;101992.0;;;8.33;100.0
63954;BME280;50128;52.094;5.232;2023-02-02T04:09:52;101983.0;;;8.3;100.0
63954;BME280;50128;52.094;5.232;2023-02-02T04:11:28;101975.0;;;8.31;100.0
63954;BME280;50128;52.094;5.232;2023-02-02T04:13:04;101980.0;;;8.33;100.0
63954;BME280;50128;52.094;5.232;2023-02-02T04:16:16;101976.0;;;8.38;100.0
63954;BME280;50128;52.094;5.232;2023-02-02T04:17:52;101986.0;;;8.45;100.0
63954;BME280;50128;52.094;5.232;2023-02-02T04:19:28;101983.0;;;8.43;99.98
63954;BME280;50128;52.094;5.232;2023-02-02T04:22:43;101984.0;;;8.33;100.0
63954;BME280;50128;52.094;5.232;2023-02-02T04:24:20;101975.0;;;8.47;100.0
63954;BME280;50128;52.094;5.232;2023-02-02T04:25:57;101977.0;;;8.5;99.36
63954;BME280;50128;52.094;5.232;2023-02-02T04:27:34;101969.0;;;8.48;99.19
63954;BME280;50128;52.094;5.232;2023-02-02T04:30:47;101970.0;;;8.55;99.13
63954;BME280;50128;52.094;5.232;2023-02-02T04:32:23;101983.0;;;8.49;99.11
63954;BME280;50128;52.094;5.232;2023-02-02T04:33:59;101990.0;;;8.51;99.04
63954;BME280;50128;52.094;5.232;2023-02-02T04:37:12;101978.0;;;8.56;98.75
63954;BME280;50128;52.094;5.232;2023-02-02T04:38:49;102002.0;;;8.53;98.79
63954;BME280;50128;52.094;5.232;2023-02-02T04:40:25;101988.0;;;8.48;99.13
63954;BME280;50128;52.094;5.232;2023-02-02T04:43:39;101988.0;;;8.48;98.78
63954;BME280;50128;52.094;5.232;2023-02-02T04:45:15;101980.0;;;8.53;98.78
63954;BME280;50128;52.094;5.232;2023-02-02T04:46:52;101978.0;;;8.52;98.64
63954;BME280;50128;52.094;5.232;2023-02-02T04:48:28;101984.0;;;8.52;98.62
63954;BME280;50128;52.094;5.232;2023-02-02T04:51:43;101983.0;;;8.41;99.16
63954;BME280;50128;52.094;5.232;2023-02-02T04:53:19;101969.0;;;8.47;99.26
63954;BME280;50128;52.094;5.232;2023-02-02T04:54:55;101983.0;;;8.43;99.31
63954;BME280;50128;52.094;5.232;2023-02-02T04:58:09;101989.0;;;8.45;99.5
63954;BME280;50128;52.094;5.232;2023-02-02T04:59:45;101997.0;;;8.51;98.98
63954;BME280;50128;52.094;5.232;2023-02-02T05:01:21;102014.0;;;8.56;98.73
63954;BME280;50128;52.094;5.232;2023-02-02T05:04:35;101995.0;;;8.56;98.19
63954;BME280;50128;52.094;5.232;2023-02-02T05:06:12;102003.0;;;8.58;98.32
63954;BME280;50128;52.094;5.232;2023-02-02T05:07:48;102006.0;;;8.5;98.53
63954;BME280;50128;52.094;5.232;2023-02-02T05:09:25;102012.0;;;8.53;98.72
63954;BME280;50128;52.094;5.232;2023-02-02T05:12:42;102024.0;;;8.6;98.7
63954;BME280;50128;52.094;5.232;2023-02-02T05:14:19;102020.0;;;8.53;98.76
63954;BME280;50128;52.094;5.232;2023-02-02T05:15:55;102026.0;;;8.58;98.85
63954;BME280;50128;52.094;5.232;2023-02-02T05:19:10;102011.0;;;8.56;98.85
63954;BME280;50128;52.094;5.232;2023-02-02T05:20:48;102010.0;;;8.59;98.94
63954;BME280;50128;52.094;5.232;2023-02-02T05:22:25;102007.0;;;8.63;98.92
63954;BME280;50128;52.094;5.232;2023-02-02T05:24:03;102007.0;;;8.65;98.54
63954;BME280;50128;52.094;5.232;2023-02-02T05:27:15;102015.0;;;8.67;98.62
63954;BME280;50128;52.094;5.232;2023-02-02T05:28:52;102017.0;;;8.6;98.92
63954;BME280;50128;52.094;5.232;2023-02-02T05:30:28;102008.0;;;8.56;98.72
63954;BME280;50128;52.094;5.232;2023-02-02T05:33:40;102007.0;;;8.48;99.22
63954;BME280;50128;52.094;5.232;2023-02-02T05:35:17;102016.0;;;8.56;99.54
63954;BME280;50128;52.094;5.232;2023-02-02T05:36:54;102006.0;;;8.59;99.21
63954;BME280;50128;52.094;5.232;2023-02-02T05:40:08;102008.0;;;8.56;99.27
63954;BME280;50128;52.094;5.232;2023-02-02T05:41:45;102005.0;;;8.63;99.19
63954;BME280;50128;52.094;5.232;2023-02-02T05:43:23;102017.0;;;8.55;98.93
63954;BME280;50128;52.094;5.232;2023-02-02T05:45:00;102005.0;;;8.52;99.07
63954;BME280;50128;52.094;5.232;2023-02-02T05:48:13;102011.0;;;8.52;99.09
63954;BME280;50128;52.094;5.232;2023-02-02T05:49:49;102009.0;;;8.48;99.24
63954;BME280;50128;52.094;5.232;2023-02-02T05:51:28;102000.0;;;8.64;98.87
63954;BME280;50128;52.094;5.232;2023-02-02T05:54:43;102015.0;;;8.58;99.6
63954;BME280;50128;52.094;5.232;2023-02-02T05:56:20;102014.0;;;8.61;99.54
63954;BME280;50128;52.094;5.232;2023-02-02T05:57:56;102020.0;;;8.64;99.2
63954;BME280;50128;52.094;5.232;2023-02-02T06:01:07;102021.0;;;8.66;99.42
63954;BME280;50128;52.094;5.232;2023-02-02T06:02:44;102026.0;;;8.64;99.79
63954;BME280;50128;52.094;5.232;2023-02-02T06:04:21;102021.0;;;8.64;99.88
63954;BME280;50128;52.094;5.232;2023-02-02T06:05:57;102021.0;;;8.53;100.0
63954;BME280;50128;52.094;5.232;2023-02-02T06:09:10;102025.0;;;8.52;100.0
63954;BME280;50128;52.094;5.232;2023-02-02T06:10:46;102026.0;;;8.58;100.0
63954;BME280;50128;52.094;5.232;2023-02-02T06:12:22;102023.0;;;8.5;100.0
63954;BME280;50128;52.094;5.232;2023-02-02T06:15:35;102024.0;;;8.51;100.0
63954;BME280;50128;52.094;5.232;2023-02-02T06:17:12;102035.0;;;8.5;100.0
63954;BME280;50128;52.094;5.232;2023-02-02T06:18:49;102024.0;;;8.51;100.0
63954;BME280;50128;52.094;5.232;2023-02-02T06:22:02;102024.0;;;8.56;100.0
63954;BME280;50128;52.094;5.232;2023-02-02T06:23:45;102032.0;;;8.49;100.0
63954;BME280;50128;52.094;5.232;2023-02-02T06:25:21;102038.0;;;8.45;100.0
63954;BME280;50128;52.094;5.232;2023-02-02T06:26:58;102034.0;;;8.44;100.0
63954;BME280;50128;52.094;5.232;2023-02-02T06:30:12;102037.0;;;8.48;100.0
63954;BME280;50128;52.094;5.232;2023-02-02T06:31:49;102040.0;;;8.48;100.0
63954;BME280;50128;52.094;5.232;2023-02-02T06:33:25;102041.0;;;8.51;100.0
63954;BME280;50128;52.094;5.232;2023-02-02T06:36:40;102046.0;;;8.4;100.0
63954;BME280;50128;52.094;5.232;2023-02-02T06:38:18;102046.0;;;8.45;100.0
63954;BME280;50128;52.094;5.232;2023-02-02T06:39:54;102050.0;;;8.48;100.0
63954;BME280;50128;52.094;5.232;2023-02-02T06:43:08;102046.0;;;8.5;100.0
63954;BME280;50128;52.094;5.232;2023-02-02T06:44:44;102050.0;;;8.49;100.0
63954;BME280;50128;52.094;5.232;2023-02-02T06:46:21;102055.0;;;8.39;100.0
63954;BME280;50128;52.094;5.232;2023-02-02T06:47:58;102065.0;;;8.42;100.0
63954;BME280;50128;52.094;5.232;2023-02-02T06:51:13;102058.0;;;8.39;100.0
63954;BME280;50128;52.094;5.232;2023-02-02T06:52:49;102069.0;;;8.44;100.0
63954;BME280;50128;52.094;5.232;2023-02-02T06:54:26;102074.0;;;8.36;100.0
63954;BME280;50128;52.094;5.232;2023-02-02T06:56:05;102073.0;;;8.42;100.0
63954;BME280;50128;52.094;5.232;2023-02-02T06:59:19;102071.0;;;8.31;100.0
63954;BME280;50128;52.094;5.232;2023-02-02T07:01:00;102073.0;;;8.39;100.0
63954;BME280;50128;52.094;5.232;2023-02-02T07:02:37;102071.0;;;8.39;100.0
63954;BME280;50128;52.094;5.232;2023-02-02T07:05:52;102059.0;;;8.35;100.0
63954;BME280;50128;52.094;5.232;2023-02-02T07:07:30;102064.0;;;8.28;100.0
63954;BME280;50128;52.094;5.232;2023-02-02T07:09:07;102066.0;;;8.33;100.0
63954;BME280;50128;52.094;5.232;2023-02-02T07:10:43;102062.0;;;8.31;100.0
63954;BME280;50128;52.094;5.232;2023-02-02T07:13:56;102058.0;;;8.3;100.0
63954;BME280;50128;52.094;5.232;2023-02-02T07:15:33;102064.0;;;8.39;100.0
63954;BME280;50128;52.094;5.232;2023-02-02T07:17:09;102066.0;;;8.35;100.0
63954;BME280;50128;52.094;5.232;2023-02-02T07:20:23;102067.0;;;8.38;100.0
63954;BME280;50128;52.094;5.232;2023-02-02T07:21:59;102065.0;;;8.23;100.0
63954;BME280;50128;52.094;5.232;2023-02-02T07:23:35;102067.0;;;8.23;100.0
63954;BME280;50128;52.094;5.232;2023-02-02T07:26:47;102070.0;;;8.2;100.0
63954;BME280;50128;52.094;5.232;2023-02-02T07:28:24;102071.0;;;8.11;100.0
63954;BME280;50128;52.094;5.232;2023-02-02T07:30:04;102076.0;;;8.22;100.0
63954;BME280;50128;52.094;5.232;2023-02-02T07:31:40;102078.0;;;8.19;100.0
63954;BME280;50128;52.094;5.232;2023-02-02T07:34:52;102086.0;;;8.2;100.0
63954;BME280;50128;52.094;5.232;2023-02-02T07:36:28;102086.0;;;8.14;100.0
63954;BME280;50128;52.094;5.232;2023-02-02T07:38:04;102072.0;;;8.14;100.0
63954;BME280;50128;52.094;5.232;2023-02-02T07:41:18;102093.0;;;8.2;100.0
63954;BME280;50128;52.094;5.232;2023-02-02T07:42:59;102091.0;;;8.2;100.0
63954;BME280;50128;52.094;5.232;2023-02-02T07:44:35;102096.0;;;8.24;100.0
63954;BME280;50128;52.094;5.232;2023-02-02T07:47:54;102090.0;;;8.25;100.0
63954;BME280;50128;52.094;5.232;2023-02-02T07:49:32;102095.0;;;8.27;100.0
63954;BME280;50128;52.094;5.232;2023-02-02T07:51:13;102094.0;;;8.23;100.0
63954;BME280;50128;52.094;5.232;2023-02-02T07:52:49;102097.0;;;8.27;100.0
63954;BME280;50128;52.094;5.232;2023-02-02T07:56:06;102106.0;;;8.3;100.0
63954;BME280;50128;52.094;5.232;2023-02-02T07:57:44;102115.0;;;8.39;100.0
63954;BME280;50128;52.094;5.232;2023-02-02T07:59:21;102117.0;;;8.39;100.0
63954;BME280;50128;52.094;5.232;2023-02-02T08:00:59;102120.0;;;8.4;100.0
63954;BME280;50128;52.094;5.232;2023-02-02T08:04:12;102113.0;;;8.31;100.0
63954;BME280;50128;52.094;5.232;2023-02-02T08:05:50;102120.0;;;8.38;100.0
63954;BME280;50128;52.094;5.232;2023-02-02T08:07:26;102121.0;;;8.43;100.0
63954;BME280;50128;52.094;5.232;2023-02-02T08:10:46;102122.0;;;8.48;100.0
63954;BME280;50128;52.094;5.232;2023-02-02T08:12:23;102123.0;;;8.44;100.0
63954;BME280;50128;52.094;5.232;2023-02-02T08:14:02;102127.0;;;8.47;100.0
63954;BME280;50128;52.094;5.232;2023-02-02T08:15:39;102130.0;;;8.57;100.0
63954;BME280;50128;52.094;5.232;2023-02-02T08:18:52;102121.0;;;8.51;100.0
63954;BME280;50128;52.094;5.232;2023-02-02T08:20:29;102128.0;;;8.51;100.0
63954;BME280;50128;52.094;5.232;2023-02-02T08:22:05;102132.0;;;8.53;100.0
63954;BME280;50128;52.094;5.232;2023-02-02T08:25:18;102135.0;;;8.58;100.0
63954;BME280;50128;52.094;5.232;2023-02-02T08:26:54;102136.0;;;8.48;100.0
63954;BME280;50128;52.094;5.232;2023-02-02T08:28:31;102144.0;;;8.48;100.0
63954;BME280;50128;52.094;5.232;2023-02-02T08:31:46;102147.0;;;8.52;100.0
63954;BME280;50128;52.094;5.232;2023-02-02T08:33:22;102149.0;;;8.56;100.0
63954;BME280;50128;52.094;5.232;2023-02-02T08:34:58;102155.0;;;8.64;100.0
63954;BME280;50128;52.094;5.232;2023-02-02T08:36:34;102160.0;;;8.6;100.0
63954;BME280;50128;52.094;5.232;2023-02-02T08:39:47;102156.0;;;8.6;100.0
63954;BME280;50128;52.094;5.232;2023-02-02T08:41:23;102170.0;;;8.55;99.82
63954;BME280;50128;52.094;5.232;2023-02-02T08:42:59;102166.0;;;8.55;99.94
63954;BME280;50128;52.094;5.232;2023-02-02T08:46:15;102162.0;;;8.57;99.7
63954;BME280;50128;52.094;5.232;2023-02-02T08:47:52;102155.0;;;8.61;99.32
63954;BME280;50128;52.094;5.232;2023-02-02T08:49:29;102169.0;;;8.61;99.63
63954;BME280;50128;52.094;5.232;2023-02-02T08:51:06;102164.0;;;8.61;99.57
63954;BME280;50128;52.094;5.232;2023-02-02T08:54:20;102166.0;;;8.6;98.71
63954;BME280;50128;52.094;5.232;2023-02-02T08:55:58;102177.0;;;8.68;99.28
63954;BME280;50128;52.094;5.232;2023-02-02T08:57:35;102171.0;;;8.69;99.29
63954;BME280;50128;52.094;5.232;2023-02-02T09:00:47;102178.0;;;8.76;98.74
63954;BME280;50128;52.094;5.232;2023-02-02T09:02:23;102180.0;;;8.74;98.96
63954;BME280;50128;52.094;5.232;2023-02-02T09:04:01;102184.0;;;8.76;98.96
63954;BME280;50128;52.094;5.232;2023-02-02T09:07:15;102174.0;;;8.82;98.6
63954;BME280;50128;52.094;5.232;2023-02-02T09:08:51;102190.0;;;8.75;99.19
63954;BME280;50128;52.094;5.232;2023-02-02T09:10:33;102198.0;;;8.82;99.03
63954;BME280;50128;52.094;5.232;2023-02-02T09:12:10;102195.0;;;8.93;98.75
63954;BME280;50128;52.094;5.232;2023-02-02T09:15:28;102201.0;;;8.8;99.3
63954;BME280;50128;52.094;5.232;2023-02-02T09:18:42;102198.0;;;8.82;98.67
63954;BME280;50128;52.094;5.232;2023-02-02T09:21:55;102200.0;;;8.89;99.0
63954;BME280;50128;52.094;5.232;2023-02-02T09:23:36;102207.0;;;8.93;99.74
63954;BME280;50128;52.094;5.232;2023-02-02T09:25:13;102203.0;;;8.97;98.94
63954;BME280;50128;52.094;5.232;2023-02-02T09:26:50;102207.0;;;9.03;98.88
63954;BME280;50128;52.094;5.232;2023-02-02T09:30:03;102209.0;;;9.06;99.21
63954;BME280;50128;52.094;5.232;2023-02-02T09:31:40;102214.0;;;9.06;98.46
63954;BME280;50128;52.094;5.232;2023-02-02T09:33:16;102216.0;;;9.02;98.01
63954;BME280;50128;52.094;5.232;2023-02-02T09:36:29;102218.0;;;9.06;98.46
63954;BME280;50128;52.094;5.232;2023-02-02T09:38:06;102224.0;;;9.03;98.01
63954;BME280;50128;52.094;5.232;2023-02-02T09:39:42;102227.0;;;9.06;98.63
63954;BME280;50128;52.094;5.232;2023-02-02T09:41:33;102230.0;;;9.06;98.14
63954;BME280;50128;52.094;5.232;2023-02-02T09:43:38;102230.0;;;9.06;98.7
63954;BME280;50128;52.094;5.232;2023-02-02T09:47:15;102230.0;;;8.98;98.45
63954;BME280;50128;52.094;5.232;2023-02-02T09:48:59;102230.0;;;8.94;98.69
63954;BME280;50128;52.094;5.232;2023-02-02T09:50:42;102235.0;;;8.97;99.59
63954;BME280;50128;52.094;5.232;2023-02-02T09:52:25;102230.0;;;8.98;99.96
63954;BME280;50128;52.094;5.232;2023-02-02T09:54:10;102233.0;;;8.91;100.0
63954;BME280;50128;52.094;5.232;2023-02-02T09:57:36;102234.0;;;8.96;99.57
63954;BME280;50128;52.094;5.232;2023-02-02T09:59:22;102223.0;;;9.01;99.05
63954;BME280;50128;52.094;5.232;2023-02-02T10:01:05;102225.0;;;9.1;99.5
63954;BME280;50128;52.094;5.232;2023-02-02T10:02:44;102231.0;;;9.11;99.56
63954;BME280;50128;52.094;5.232;2023-02-02T10:04:27;102232.0;;;9.15;99.37
63954;BME280;50128;52.094;5.232;2023-02-02T10:08:00;102233.0;;;9.1;99.68
63954;BME280;50128;52.094;5.232;2023-02-02T10:09:46;102238.0;;;9.06;99.63
63954;BME280;50128;52.094;5.232;2023-02-02T10:11:30;102242.0;;;9.18;99.3
63954;BME280;50128;52.094;5.232;2023-02-02T10:13:14;102244.0;;;9.18;99.34
63954;BME280;50128;52.094;5.232;2023-02-02T10:14:55;102246.0;;;9.16;100.0
63954;BME280;50128;52.094;5.232;2023-02-02T10:18:21;102249.0;;;9.23;99.88
63954;BME280;50128;52.094;5.232;2023-02-02T10:20:05;102255.0;;;9.09;99.44
63954;BME280;50128;52.094;5.232;2023-02-02T10:21:58;102257.0;;;9.1;99.46
63954;BME280;50128;52.094;5.232;2023-02-02T10:23:38;102253.0;;;9.17;98.96
63954;BME280;50128;52.094;5.232;2023-02-02T10:25:18;102256.0;;;9.09;98.67
63954;BME280;50128;52.094;5.232;2023-02-02T10:28:43;102256.0;;;9.17;98.98
63954;BME280;50128;52.094;5.232;2023-02-02T10:30:35;102258.0;;;9.15;98.45
63954;BME280;50128;52.094;5.232;2023-02-02T10:32:24;102255.0;;;9.21;98.46
63954;BME280;50128;52.094;5.232;2023-02-02T10:34:08;102265.0;;;9.34;97.96
63954;BME280;50128;52.094;5.232;2023-02-02T10:35:52;102273.0;;;9.36;97.77
63954;BME280;50128;52.094;5.232;2023-02-02T10:39:26;102271.0;;;9.22;97.71
63954;BME280;50128;52.094;5.232;2023-02-02T10:41:14;102272.0;;;9.27;97.8
63954;BME280;50128;52.094;5.232;2023-02-02T10:44:09;102267.0;;;9.38;98.08
63954;BME280;50128;52.094;5.232;2023-02-02T10:45:51;102273.0;;;9.38;97.33
63954;BME280;50128;52.094;5.232;2023-02-02T10:47:32;102280.0;;;9.36;97.59
63954;BME280;50128;52.094;5.232;2023-02-02T10:49:14;102276.0;;;9.33;97.26
63954;BME280;50128;52.094;5.232;2023-02-02T10:51:01;102282.0;;;9.25;97.23
63954;BME280;50128;52.094;5.232;2023-02-02T10:52:45;102282.0;;;9.26;97.84
63954;BME280;50128;52.094;5.232;2023-02-02T10:56:39;102280.0;;;9.32;96.86
63954;BME280;50128;52.094;5.232;2023-02-02T11:00:09;102275.0;;;9.23;97.47
63954;BME280;50128;52.094;5.232;2023-02-02T11:01:49;102273.0;;;9.3;97.2
63954;BME280;50128;52.094;5.232;2023-02-02T11:03:27;102265.0;;;9.22;97.33
63954;BME280;50128;52.094;5.232;2023-02-02T11:06:54;102266.0;;;9.32;96.69
63954;BME280;50128;52.094;5.232;2023-02-02T11:08:40;102270.0;;;9.23;96.39
63954;BME280;50128;52.094;5.232;2023-02-02T11:10:17;102268.0;;;9.23;96.37
63954;BME280;50128;52.094;5.232;2023-02-02T11:11:56;102272.0;;;9.38;96.38
63954;BME280;50128;52.094;5.232;2023-02-02T11:13:41;102270.0;;;9.33;96.27
63954;BME280;50128;52.094;5.232;2023-02-02T11:17:03;102275.0;;;9.4;97.07
63954;BME280;50128;52.094;5.232;2023-02-02T11:18:42;102269.0;;;9.41;95.63
63954;BME280;50128;52.094;5.232;2023-02-02T11:20:23;102270.0;;;9.49;95.28
63954;BME280;50128;52.094;5.232;2023-02-02T11:22:23;102269.0;;;9.57;94.97
63954;BME280;50128;52.094;5.232;2023-02-02T11:24:01;102273.0;;;9.52;94.34
63954;BME280;50128;52.094;5.232;2023-02-02T11:27:20;102270.0;;;9.52;93.95
63954;BME280;50128;52.094;5.232;2023-02-02T11:28:57;102274.0;;;9.48;94.98
63954;BME280;50128;52.094;5.232;2023-02-02T11:30:35;102266.0;;;9.53;94.01
63954;BME280;50128;52.094;5.232;2023-02-02T11:32:25;102271.0;;;9.52;94.98